Time;durP1;ratioP1;P1;durP2;ratioP2;P2;SDS_P1;SDS_P2;PMS_P1;PMS_P2;Temp;Humidity;BMP_temperature;BMP_pressure;BME280_temperature;BME280_humidity;BME280_pressure;Samples;Min_cycle;Max_cycle;Signal;HPM_P1;HPM_P2
2023/12/25 00:01:02;;;;;;;7.68;1.50;;;;;;;9.19;100.00;99577.16;5070759;28;20513;-70
2023/12/25 00:03:28;;;;;;;;;;;;;;;9.27;100.00;99579.19;5048937;28;20036;-69
2023/12/25 00:05:55;;;;;;;8.02;1.45;;;;;;;9.26;100.00;99558.91;5041078;28;19924;-70
2023/12/25 00:08:20;;;;;;;7.00;1.13;;;;;;;9.28;100.00;99553.28;5032774;28;20044;-70
2023/12/25 00:10:46;;;;;;;7.38;1.67;;;;;;;9.34;100.00;99544.09;5058027;28;20055;-69
2023/12/25 00:13:12;;;;;;;6.95;1.60;;;;;;;9.32;100.00;99546.28;5039794;28;20506;-69
2023/12/25 00:15:38;;;;;;;6.78;1.20;;;;;;;9.27;100.00;99557.81;5065189;28;20033;-70
2023/12/25 00:18:04;;;;;;;5.13;1.30;;;;;;;9.23;100.00;99562.16;5051527;28;20041;-69
2023/12/25 00:20:30;;;;;;;7.20;1.33;;;;;;;9.27;100.00;99565.03;5070648;28;20036;-70
2023/12/25 00:22:56;;;;;;;5.57;1.30;;;;;;;9.25;100.00;99556.53;5055033;28;20075;-71
2023/12/25 00:25:21;;;;;;;8.98;1.38;;;;;;;9.25;100.00;99564.53;5057469;28;20598;-70
2023/12/25 00:27:47;;;;;;;5.88;1.10;;;;;;;9.27;100.00;99567.72;5037495;28;20043;-71
2023/12/25 00:30:14;;;;;;;6.10;0.98;;;;;;;9.37;100.00;99569.47;5046723;28;20044;-70
2023/12/25 00:32:39;;;;;;;4.55;1.33;;;;;;;9.39;100.00;99557.38;5035368;28;20047;-70
2023/12/25 00:35:05;;;;;;;5.95;1.25;;;;;;;9.40;100.00;99552.84;5056110;28;20083;-71
2023/12/25 00:37:30;;;;;;;4.47;0.95;;;;;;;9.46;100.00;99547.13;5054093;28;20067;-69
2023/12/25 00:39:56;;;;;;;7.00;1.45;;;;;;;9.43;100.00;99555.72;5072531;28;20033;-70
2023/12/25 00:42:22;;;;;;;6.40;1.30;;;;;;;9.40;100.00;99555.50;5049727;28;20040;-72
2023/12/25 00:44:48;;;;;;;5.22;1.10;;;;;;;9.42;100.00;99566.72;5054621;28;20143;-70
2023/12/25 00:47:14;;;;;;;5.13;0.93;;;;;;;9.41;100.00;99573.91;5053502;28;20032;-69
2023/12/25 00:49:40;;;;;;;5.18;1.20;;;;;;;9.38;100.00;99563.03;5063768;28;20029;-70
2023/12/25 00:52:06;;;;;;;8.27;1.73;;;;;;;9.42;100.00;99574.72;5048546;28;20040;-69
2023/12/25 00:54:32;;;;;;;5.78;1.40;;;;;;;9.39;100.00;99578.75;5063544;28;20399;-69
2023/12/25 00:56:59;;;;;;;8.68;1.38;;;;;;;9.37;100.00;99567.56;5051114;28;20041;-69
2023/12/25 00:59:24;;;;;;;4.72;1.17;;;;;;;9.35;100.00;99569.75;5059337;28;20047;-69
2023/12/25 01:01:50;;;;;;;5.50;1.15;;;;;;;9.42;100.00;99582.75;5060121;28;20032;-69
2023/12/25 01:04:16;;;;;;;6.53;1.55;;;;;;;9.42;100.00;99588.88;5057161;28;20452;-68
2023/12/25 01:06:41;;;;;;;;;;;;;;;9.36;100.00;99582.03;5034935;28;20072;-70
2023/12/25 01:09:07;;;;;;;6.57;1.67;;;;;;;9.35;100.00;99580.44;5058244;28;19916;-69
2023/12/25 01:11:39;;;;;;;5.10;1.08;;;;;;;9.39;100.00;99597.47;5059304;28;20032;-68
2023/12/25 01:14:05;;;;;;;6.28;1.60;;;;;;;9.40;100.00;99599.06;5044318;28;20033;-69
2023/12/25 01:16:30;;;;;;;7.07;1.30;;;;;;;9.48;100.00;99594.94;5051828;28;20049;-69
2023/12/25 01:18:56;;;;;;;4.45;0.93;;;;;;;9.50;100.00;99590.09;5059155;28;20133;-68
2023/12/25 01:21:22;;;;;;;4.35;1.00;;;;;;;9.49;100.00;99586.66;5060205;28;20117;-68
2023/12/25 01:23:49;;;;;;;5.15;1.23;;;;;;;9.51;100.00;99584.47;5042119;28;20395;-69
2023/12/25 01:26:15;;;;;;;6.30;1.38;;;;;;;9.50;100.00;99588.22;5056479;28;20048;-70
2023/12/25 01:28:40;;;;;;;9.13;1.38;;;;;;;9.50;100.00;99596.25;5058696;28;20496;-69
2023/12/25 01:31:06;;;;;;;5.53;1.08;;;;;;;9.54;100.00;99588.44;5054634;28;20028;-68
2023/12/25 01:33:32;;;;;;;4.35;1.05;;;;;;;9.55;100.00;99598.03;5059878;28;20077;-70
2023/12/25 01:35:58;;;;;;;4.78;1.08;;;;;;;9.54;100.00;99596.44;5048512;28;20171;-69
2023/12/25 01:38:23;;;;;;;6.70;1.40;;;;;;;9.53;100.00;99592.97;5057121;28;20040;-71
2023/12/25 01:40:48;;;;;;;5.72;1.20;;;;;;;9.58;100.00;99603.59;5057952;28;20028;-70
2023/12/25 01:43:14;;;;;;;7.60;1.40;;;;;;;9.60;100.00;99602.50;5055398;28;20064;-69
2023/12/25 01:45:40;;;;;;;6.28;1.00;;;;;;;9.62;100.00;99611.03;5059021;28;20024;-69
2023/12/25 01:48:07;;;;;;;5.57;1.50;;;;;;;9.55;100.00;99612.22;5049769;28;20375;-69
2023/12/25 01:50:34;;;;;;;7.35;1.25;;;;;;;9.58;100.00;99610.81;5073794;28;20068;-70
2023/12/25 01:53:01;;;;;;;8.25;1.38;;;;;;;9.59;100.00;99607.06;5054057;28;20788;-70
2023/12/25 01:55:28;;;;;;;6.75;1.10;;;;;;;9.62;100.00;99600.34;5027525;28;20086;-68
2023/12/25 01:57:54;;;;;;;8.80;1.27;;;;;;;9.62;100.00;99616.38;5054100;28;20036;-69
2023/12/25 02:00:19;;;;;;;6.88;1.40;;;;;;;9.57;100.00;99609.25;5041012;28;20033;-69
2023/12/25 02:02:45;;;;;;;5.75;1.20;;;;;;;9.60;100.00;99621.22;5061602;28;20060;-70
2023/12/25 02:05:11;;;;;;;7.13;1.60;;;;;;;9.65;100.00;99615.81;5042368;28;20044;-69
2023/12/25 02:07:39;;;;;;;4.93;1.15;;;;;;;9.63;100.00;99639.38;5052189;28;20048;-69
2023/12/25 02:10:07;;;;;;;8.70;1.40;;;;;;;9.62;100.00;99619.03;5058452;28;20045;-69
2023/12/25 02:12:33;;;;;;;8.13;1.70;;;;;;;9.61;100.00;99626.28;5056697;28;20090;-69
2023/12/25 02:15:04;;;;;;;7.22;1.70;;;;;;;9.66;100.00;99639.56;5041710;28;20060;-71
2023/12/25 02:17:32;;;;;;;7.75;1.40;;;;;;;9.73;100.00;99628.50;5070184;28;20051;-70
2023/12/25 02:19:58;;;;;;;9.45;1.40;;;;;;;9.74;100.00;99635.44;5054722;28;20037;-70
2023/12/25 02:22:25;;;;;;;5.20;1.08;;;;;;;9.68;100.00;99636.59;5054222;28;20032;-70
2023/12/25 02:25:02;;;;;;;5.47;1.00;;;;;;;9.68;100.00;99637.41;5056199;28;20028;-70
2023/12/25 02:27:29;;;;;;;5.82;1.20;;;;;;;9.75;100.00;99627.13;5054656;28;20032;-69
2023/12/25 02:29:55;;;;;;;5.18;1.00;;;;;;;9.71;100.00;99610.09;5053509;28;20033;-69
2023/12/25 02:32:21;;;;;;;4.28;1.10;;;;;;;9.72;100.00;99633.06;5057217;28;20173;-70
2023/12/25 02:34:48;;;;;;;4.00;1.00;;;;;;;9.75;100.00;99610.28;5044388;28;20036;-70
2023/12/25 02:37:15;;;;;;;4.97;1.13;;;;;;;9.68;100.00;99620.56;5049354;28;20041;-71
2023/12/25 02:39:41;;;;;;;6.30;1.42;;;;;;;9.69;100.00;99622.97;5033830;28;20457;-71
2023/12/25 02:42:07;;;;;;;7.47;1.25;;;;;;;9.70;100.00;99642.47;5028396;28;20118;-70
2023/12/25 02:44:33;;;;;;;5.65;0.90;;;;;;;9.71;100.00;99625.34;5043391;28;20785;-70
2023/12/25 02:46:58;;;;;;;7.78;1.35;;;;;;;9.72;100.00;99648.31;5054896;28;20060;-69
2023/12/25 02:49:24;;;;;;;6.88;1.20;;;;;;;9.66;100.00;99649.47;5056500;28;20082;-70
2023/12/25 02:51:50;;;;;;;7.45;1.33;;;;;;;9.60;100.00;99635.38;5040560;28;20780;-70
2023/12/25 02:54:16;;;;;;;7.45;1.48;;;;;;;9.53;100.00;99641.09;5054681;28;20656;-71
2023/12/25 02:56:41;;;;;;;5.72;1.20;;;;;;;9.46;100.00;99643.31;5053765;28;20044;-71
2023/12/25 02:59:07;;;;;;;9.52;1.70;;;;;;;9.44;100.00;99653.53;5039384;28;20059;-71
2023/12/25 03:01:33;;;;;;;7.25;1.45;;;;;;;9.41;100.00;99638.03;5052905;28;20173;-69
2023/12/25 03:03:58;;;;;;;4.72;1.08;;;;;;;9.42;100.00;99652.22;5028370;28;20048;-70
2023/12/25 03:06:24;;;;;;;5.65;1.50;;;;;;;9.46;100.00;99631.84;5059106;28;20122;-69
2023/12/25 03:08:51;;;;;;;8.85;1.25;;;;;;;9.46;100.00;99634.53;5062466;28;20089;-70
2023/12/25 03:11:17;;;;;;;9.10;1.77;;;;;;;9.35;100.00;99636.56;5054419;28;20032;-69
2023/12/25 03:13:43;;;;;;;7.95;1.30;;;;;;;9.33;100.00;99646.72;5032889;28;20041;-69
2023/12/25 03:16:09;;;;;;;;;;;;;;;9.36;100.00;99640.00;5028997;28;20043;-69
2023/12/25 03:18:34;;;;;;;8.70;1.58;;;;;;;9.33;100.00;99628.00;5050016;28;19999;-69
2023/12/25 03:21:00;;;;;;;9.15;1.20;;;;;;;9.37;100.00;99649.63;5040070;28;20090;-68
2023/12/25 03:23:26;;;;;;;6.28;1.38;;;;;;;9.26;100.00;99652.41;5050301;28;20383;-70
2023/12/25 03:25:52;;;;;;;8.07;1.40;;;;;;;9.21;100.00;99662.34;5042635;28;20076;-69
2023/12/25 03:28:17;;;;;;;8.75;1.50;;;;;;;9.19;100.00;99648.50;5054626;28;20064;-70
2023/12/25 03:30:43;;;;;;;6.35;1.30;;;;;;;9.27;100.00;99662.00;5058156;28;20024;-68
2023/12/25 03:33:09;;;;;;;6.68;1.50;;;;;;;9.27;100.00;99658.53;5018109;28;20083;-70
2023/12/25 03:35:34;;;;;;;8.45;1.50;;;;;;;9.23;100.00;99658.34;5047283;28;20032;-71
2023/12/25 03:38:00;;;;;;;8.13;1.40;;;;;;;9.27;100.00;99661.22;5053805;28;20048;-68
2023/12/25 03:40:26;;;;;;;7.35;1.15;;;;;;;9.27;100.00;99667.34;5050895;28;20033;-69
2023/12/25 03:42:53;;;;;;;6.38;1.25;;;;;;;9.25;100.00;99672.19;5040364;28;20048;-69
2023/12/25 03:45:18;;;;;;;10.57;1.60;;;;;;;9.24;100.00;99664.47;5021052;28;20110;-69
2023/12/25 03:47:44;;;;;;;9.80;1.30;;;;;;;9.23;100.00;99679.72;5050110;28;20800;-71
2023/12/25 03:50:10;;;;;;;9.15;1.60;;;;;;;9.24;100.00;99669.81;5042701;28;20501;-70
2023/12/25 03:52:38;;;;;;;6.60;1.40;;;;;;;9.18;100.00;99657.59;5065347;22;20071;-74
2023/12/25 03:55:07;;;;;;;7.45;1.38;;;;;;;9.16;100.00;99659.78;5025000;28;20073;-76
2023/12/25 03:57:33;;;;;;;8.35;1.20;;;;;;;9.16;100.00;99668.56;5044504;28;20036;-74
2023/12/25 03:59:59;;;;;;;8.73;1.15;;;;;;;9.16;100.00;99676.59;5052042;28;20040;-75
2023/12/25 04:02:24;;;;;;;4.35;1.30;;;;;;;9.15;100.00;99664.31;5025884;28;20041;-73
2023/12/25 04:04:50;;;;;;;8.18;1.63;;;;;;;9.12;100.00;99685.44;5058257;28;20036;-73
2023/12/25 04:07:16;;;;;;;10.50;2.03;;;;;;;9.13;100.00;99674.47;5025549;28;20050;-73
2023/12/25 04:09:42;;;;;;;;;;;;;;;9.15;100.00;99672.34;5055522;28;20035;-72
2023/12/25 04:12:08;;;;;;;8.43;1.13;;;;;;;9.14;100.00;99669.94;5041444;28;19920;-72
2023/12/25 04:14:39;;;;;;;8.43;1.40;;;;;;;9.15;100.00;99674.22;5026560;28;20033;-74
2023/12/25 04:17:05;;;;;;;10.05;1.30;;;;;;;9.17;100.00;99675.50;5016014;28;20042;-71
2023/12/25 04:19:32;;;;;;;9.50;1.08;;;;;;;9.15;100.00;99691.03;5062270;28;20472;-75
2023/12/25 04:21:57;;;;;;;10.98;1.33;;;;;;;9.16;100.00;99689.16;5043866;28;20098;-73
2023/12/25 04:24:23;;;;;;;10.07;1.77;;;;;;;9.21;100.00;99681.06;5047736;28;20040;-72
2023/12/25 04:26:49;;;;;;;12.80;1.60;;;;;;;9.17;100.00;99696.09;5042951;28;20039;-73
2023/12/25 04:29:15;;;;;;;10.95;1.55;;;;;;;9.19;100.00;99704.59;5049281;28;20036;-74
2023/12/25 04:31:41;;;;;;;9.48;1.58;;;;;;;9.15;100.00;99699.03;5033303;28;20127;-73
2023/12/25 04:34:06;;;;;;;10.30;1.67;;;;;;;9.13;100.00;99700.41;5013286;28;20397;-74
2023/12/25 04:36:32;;;;;;;9.73;1.48;;;;;;;9.13;100.00;99706.53;5039905;28;20033;-72
2023/12/25 04:38:58;;;;;;;9.13;1.48;;;;;;;9.12;100.00;99722.84;5035457;28;20529;-72
2023/12/25 04:41:24;;;;;;;10.77;1.73;;;;;;;9.08;100.00;99724.47;5053380;28;20067;-73
2023/12/25 04:43:51;;;;;;;8.82;1.65;;;;;;;9.10;100.00;99715.13;5036617;28;20028;-72
2023/12/25 04:46:18;;;;;;;8.63;1.42;;;;;;;9.09;100.00;99726.91;5042014;28;20068;-72
2023/12/25 04:48:43;;;;;;;8.65;1.55;;;;;;;9.00;100.00;99724.03;5050340;28;20517;-74
2023/12/25 04:51:09;;;;;;;9.75;1.50;;;;;;;8.98;100.00;99712.84;5052568;28;20058;-72
2023/12/25 04:53:36;;;;;;;9.48;1.95;;;;;;;9.01;100.00;99730.97;5025382;28;20039;-73
2023/12/25 04:56:03;;;;;;;10.32;1.85;;;;;;;8.99;100.00;99710.97;5034084;28;20503;-73
2023/12/25 04:58:28;;;;;;;11.90;1.73;;;;;;;8.99;100.00;99727.78;5050687;28;20028;-75
2023/12/25 05:00:54;;;;;;;8.88;1.95;;;;;;;8.97;100.00;99729.94;5038858;28;20640;-73
2023/12/25 05:03:21;;;;;;;13.38;1.98;;;;;;;8.94;100.00;99733.19;5049959;28;20078;-73
2023/12/25 05:05:49;;;;;;;8.18;1.58;;;;;;;8.88;100.00;99730.84;5016042;28;20036;-72
2023/12/25 05:08:15;;;;;;;7.05;1.27;;;;;;;8.85;100.00;99724.19;5065601;28;20114;-73
2023/12/25 05:10:41;;;;;;;12.13;2.15;;;;;;;8.83;100.00;99718.34;5048549;28;20082;-73
2023/12/25 05:13:08;;;;;;;10.77;1.95;;;;;;;8.85;100.00;99729.53;5046826;28;20033;-74
2023/12/25 05:15:34;;;;;;;8.18;1.20;;;;;;;8.81;100.00;99725.84;5045648;28;20048;-72
2023/12/25 05:17:59;;;;;;;8.60;1.60;;;;;;;8.83;100.00;99739.72;5050760;28;20036;-75
2023/12/25 05:20:25;;;;;;;8.20;1.75;;;;;;;8.78;100.00;99737.09;5049493;28;20033;-72
2023/12/25 05:22:52;;;;;;;9.65;1.50;;;;;;;8.71;100.00;99736.63;5044999;28;20029;-72
2023/12/25 05:25:18;;;;;;;13.10;2.25;;;;;;;8.68;100.00;99747.88;5068925;28;20036;-74
2023/12/25 05:27:44;;;;;;;10.68;1.75;;;;;;;8.65;100.00;99735.06;5053973;28;20477;-74
2023/12/25 05:30:11;;;;;;;8.40;1.45;;;;;;;8.63;100.00;99746.03;5076737;28;20061;-74
2023/12/25 05:32:37;;;;;;;9.98;1.52;;;;;;;8.66;100.00;99736.66;5034952;28;20044;-73
2023/12/25 05:35:04;;;;;;;9.90;1.70;;;;;;;8.67;100.00;99751.59;5040734;28;20047;-73
2023/12/25 05:37:30;;;;;;;7.70;1.50;;;;;;;8.69;100.00;99749.44;5044174;28;20032;-72
2023/12/25 05:39:56;;;;;;;13.38;1.85;;;;;;;8.72;100.00;99748.88;5030680;28;20044;-74
2023/12/25 05:42:22;;;;;;;7.13;1.40;;;;;;;8.71;100.00;99733.94;5045204;28;20040;-72
2023/12/25 05:44:48;;;;;;;9.25;1.27;;;;;;;8.67;100.00;99748.91;5044022;28;20067;-75
2023/12/25 05:47:14;;;;;;;8.63;1.63;;;;;;;8.62;100.00;99744.44;5042395;28;20072;-74
2023/12/25 05:49:40;;;;;;;7.03;1.77;;;;;;;8.55;100.00;99751.19;5064086;28;20050;-73
2023/12/25 05:52:06;;;;;;;6.90;1.33;;;;;;;8.47;100.00;99757.91;5059373;28;20120;-72
2023/12/25 05:54:31;;;;;;;11.02;2.00;;;;;;;8.44;100.00;99771.81;5057633;28;20109;-73
2023/12/25 05:56:58;;;;;;;10.90;1.50;;;;;;;8.42;100.00;99777.44;5050463;28;20028;-72
2023/12/25 05:59:25;;;;;;;10.25;1.75;;;;;;;8.37;100.00;99772.13;5029390;28;20521;-73
2023/12/25 06:01:51;;;;;;;9.07;1.60;;;;;;;8.36;100.00;99770.53;5023840;28;20033;-73
2023/12/25 06:04:17;;;;;;;;;;;;;;;8.29;100.00;99778.03;5039718;28;20041;-72
2023/12/25 06:06:43;;;;;;;944.55;616.97;;;;;;;8.28;100.00;99778.31;5044875;28;19923;-73
2023/12/25 06:09:12;;;;;;;93.35;64.10;;;;;;;8.28;100.00;99792.44;5050761;28;20036;-73
2023/12/25 06:11:39;;;;;;;76.28;67.50;;;;;;;8.31;100.00;99793.75;5064654;28;20059;-71
2023/12/25 06:14:05;;;;;;;106.25;84.45;;;;;;;8.35;100.00;99800.97;5036088;28;20758;-74
2023/12/25 06:16:32;;;;;;;80.90;68.80;;;;;;;8.36;100.00;99810.53;5062498;28;20105;-74
2023/12/25 06:18:57;;;;;;;87.38;77.38;;;;;;;8.33;100.00;99824.44;5054336;28;20050;-73
2023/12/25 06:21:23;;;;;;;55.00;45.97;;;;;;;8.34;100.00;99826.00;5046892;28;20032;-74
2023/12/25 06:23:48;;;;;;;68.45;57.47;;;;;;;8.38;100.00;99842.28;5046348;28;20041;-73
2023/12/25 06:26:14;;;;;;;15.10;6.03;;;;;;;8.38;100.00;99837.75;5029479;28;20045;-72
2023/12/25 06:28:39;;;;;;;49.00;35.35;;;;;;;8.38;100.00;99835.06;5053687;28;20041;-73
2023/12/25 06:31:06;;;;;;;17.08;9.60;;;;;;;8.38;100.00;99840.41;5021290;28;20040;-72
2023/12/25 06:33:33;;;;;;;16.23;4.90;;;;;;;8.36;100.00;99837.22;5043589;28;20033;-71
2023/12/25 06:35:58;;;;;;;13.77;3.22;;;;;;;8.34;100.00;99842.03;5053391;28;20040;-72
2023/12/25 06:38:24;;;;;;;23.83;13.90;;;;;;;8.35;100.00;99856.16;5049291;28;20044;-73
2023/12/25 06:40:50;;;;;;;18.08;6.43;;;;;;;8.31;100.00;99844.44;5052749;28;20028;-72
2023/12/25 06:43:15;;;;;;;32.05;21.27;;;;;;;8.38;100.00;99855.63;5060309;28;20066;-74
2023/12/25 06:45:41;;;;;;;14.60;5.20;;;;;;;8.34;100.00;99835.88;5067627;28;20040;-72
2023/12/25 06:48:07;;;;;;;14.98;3.60;;;;;;;8.31;100.00;99844.44;5032851;28;20109;-73
2023/12/25 06:50:35;;;;;;;18.83;8.93;;;;;;;8.29;100.00;99852.72;5034275;28;20048;-73
2023/12/25 06:53:02;;;;;;;20.17;9.82;;;;;;;8.30;100.00;99854.31;5041442;28;20037;-72
2023/12/25 06:55:27;;;;;;;14.10;2.65;;;;;;;8.31;100.00;99855.91;5037496;28;20085;-73
2023/12/25 06:57:53;;;;;;;15.48;5.00;;;;;;;8.31;100.00;99866.56;5062232;28;20044;-73
2023/12/25 07:00:19;;;;;;;14.38;6.97;;;;;;;8.27;100.00;99854.88;5061441;28;20445;-76
2023/12/25 07:02:44;;;;;;;21.08;8.80;;;;;;;8.30;100.00;99851.63;5057881;28;20056;-74
2023/12/25 07:05:11;;;;;;;18.45;5.88;;;;;;;8.29;100.00;99866.06;5046862;28;20412;-74
2023/12/25 07:07:37;;;;;;;30.95;20.42;;;;;;;8.33;100.00;99871.63;5048499;28;20037;-74
2023/12/25 07:10:06;;;;;;;18.73;8.07;;;;;;;8.32;100.00;99873.50;5046348;28;20032;-74
2023/12/25 07:12:31;;;;;;;34.05;16.73;;;;;;;8.27;100.00;99876.22;5039626;28;20032;-74
2023/12/25 07:14:57;;;;;;;25.08;12.52;;;;;;;8.26;100.00;99901.25;5062883;28;20033;-74
2023/12/25 07:17:23;;;;;;;32.22;16.02;;;;;;;8.30;100.00;99896.19;5042884;28;20036;-75
2023/12/25 07:19:48;;;;;;;20.80;6.72;;;;;;;8.33;100.00;99892.97;5032841;28;20190;-74
2023/12/25 07:22:14;;;;;;;30.73;19.10;;;;;;;8.30;100.00;99906.88;5035024;28;20056;-74
2023/12/25 07:24:40;;;;;;;19.35;9.88;;;;;;;8.25;100.00;99907.69;5037539;28;20044;-73
2023/12/25 07:27:05;;;;;;;21.88;5.13;;;;;;;8.18;100.00;99905.31;5061000;28;20032;-74
2023/12/25 07:29:31;;;;;;;22.02;6.38;;;;;;;8.19;100.00;99906.09;5067589;28;20068;-74
2023/12/25 07:31:57;;;;;;;18.98;4.47;;;;;;;8.23;100.00;99904.50;5030689;28;20040;-75
2023/12/25 07:34:23;;;;;;;21.35;8.07;;;;;;;8.23;100.00;99915.16;5049342;28;20042;-75
2023/12/25 07:36:49;;;;;;;24.75;10.93;;;;;;;8.25;100.00;99920.22;5021578;28;20036;-73
2023/12/25 07:39:15;;;;;;;12.77;4.88;;;;;;;8.19;100.00;99927.44;5041311;28;20449;-74
2023/12/25 07:41:45;;;;;;;18.33;3.60;;;;;;;8.15;100.00;99931.75;5041521;28;20044;-74
2023/12/25 07:44:12;;;;;;;30.90;21.52;;;;;;;8.07;100.00;99945.63;5045937;28;20044;-74
2023/12/25 07:46:38;;;;;;;32.30;17.67;;;;;;;8.04;100.00;99935.50;5024258;28;20036;-74
2023/12/25 07:49:04;;;;;;;34.72;23.58;;;;;;;7.91;100.00;99942.22;5040792;28;20051;-74
2023/12/25 07:51:29;;;;;;;26.73;14.10;;;;;;;7.85;100.00;99952.09;5044435;28;20038;-75
2023/12/25 07:53:56;;;;;;;23.23;8.20;;;;;;;7.83;100.00;99961.44;5050236;28;20041;-74
2023/12/25 07:56:22;;;;;;;15.00;2.40;;;;;;;7.78;100.00;99964.91;5040773;28;20036;-74
2023/12/25 07:58:47;;;;;;;16.42;3.45;;;;;;;7.73;100.00;99972.91;5038736;28;20568;-73
2023/12/25 08:01:13;;;;;;;36.67;22.13;;;;;;;7.66;100.00;99957.19;5044449;28;20138;-73
2023/12/25 08:03:39;;;;;;;28.60;14.30;;;;;;;7.65;100.00;99965.44;5065904;28;20410;-73
2023/12/25 08:06:07;;;;;;;51.50;32.15;;;;;;;7.70;100.00;99973.44;5026250;28;20040;-73
2023/12/25 08:08:32;;;;;;;15.90;7.15;;;;;;;7.63;100.00;99972.91;5046757;28;20699;-74
2023/12/25 08:10:58;;;;;;;60.13;38.88;;;;;;;7.67;100.00;99989.97;5032040;28;20040;-72
2023/12/25 08:13:24;;;;;;;129.38;94.25;;;;;;;7.69;100.00;99987.84;5028663;28;20029;-73
2023/12/25 08:15:49;;;;;;;32.10;15.02;;;;;;;7.64;100.00;99985.16;5040059;28;20039;-74
2023/12/25 08:18:15;;;;;;;14.68;4.55;;;;;;;7.66;100.00;99981.19;5056616;28;20497;-74
2023/12/25 08:20:41;;;;;;;29.67;10.57;;;;;;;7.68;100.00;100004.91;5038676;28;20047;-74
2023/12/25 08:23:07;;;;;;;44.75;21.88;;;;;;;7.71;100.00;100001.69;5065429;28;20074;-74
2023/12/25 08:25:33;;;;;;;35.20;17.90;;;;;;;7.63;100.00;100007.56;5045011;28;20044;-73
2023/12/25 08:27:58;;;;;;;29.63;13.85;;;;;;;7.68;100.00;100012.91;5066588;28;20181;-75
2023/12/25 08:30:24;;;;;;;39.63;17.08;;;;;;;7.69;100.00;100025.16;5026924;28;20040;-73
2023/12/25 08:32:50;;;;;;;17.73;3.42;;;;;;;7.70;100.00;100026.75;5061828;28;20024;-72
2023/12/25 08:35:15;;;;;;;31.08;14.93;;;;;;;7.66;100.00;100031.03;5041242;28;20036;-72
2023/12/25 08:37:41;;;;;;;22.77;7.03;;;;;;;7.70;100.00;100042.72;5049984;28;20032;-73
2023/12/25 08:40:07;;;;;;;26.35;10.15;;;;;;;7.75;100.00;100028.63;5064280;28;20032;-72
2023/12/25 08:42:33;;;;;;;20.98;9.32;;;;;;;7.81;100.00;100041.66;5040450;28;20148;-74
2023/12/25 08:44:58;;;;;;;65.25;41.38;;;;;;;7.88;100.00;100036.88;5041149;28;20173;-73
2023/12/25 08:47:25;;;;;;;47.97;35.28;;;;;;;7.90;100.00;100042.72;5034099;28;20036;-73
2023/12/25 08:49:50;;;;;;;50.28;35.85;;;;;;;7.90;100.00;100057.91;5043766;28;20149;-73
2023/12/25 08:52:17;;;;;;;91.45;71.07;;;;;;;7.90;100.00;100052.59;5040800;28;20663;-70
2023/12/25 08:54:43;;;;;;;16.23;6.35;;;;;;;7.86;100.00;100044.34;5043169;28;20043;-73
2023/12/25 08:57:09;;;;;;;17.70;2.90;;;;;;;7.81;100.00;100063.00;5054492;28;20028;-72
2023/12/25 08:59:34;;;;;;;24.17;11.95;;;;;;;7.77;100.00;100074.44;5047542;28;20169;-74
2023/12/25 09:02:00;;;;;;;16.42;3.03;;;;;;;7.71;100.00;100076.31;5049900;28;20040;-71
2023/12/25 09:04:26;;;;;;;24.83;6.85;;;;;;;7.61;100.00;100071.78;5023198;28;20068;-73
2023/12/25 09:06:52;;;;;;;19.52;3.03;;;;;;;7.60;100.00;100072.88;5045511;28;20032;-74
2023/12/25 09:09:17;;;;;;;21.90;3.72;;;;;;;7.54;100.00;100075.78;5044044;28;20488;-71
2023/12/25 09:11:43;;;;;;;25.67;5.05;;;;;;;7.55;100.00;100083.50;5037406;28;20040;-70
2023/12/25 09:14:09;;;;;;;20.13;2.78;;;;;;;7.48;100.00;100088.28;5064656;28;20127;-71
2023/12/25 09:16:35;;;;;;;16.40;2.88;;;;;;;7.46;100.00;100084.31;5059671;28;20091;-73
2023/12/25 09:19:01;;;;;;;15.68;3.13;;;;;;;7.44;100.00;100091.75;5056861;28;20047;-72
2023/12/25 09:21:26;;;;;;;22.02;1.98;;;;;;;7.45;100.00;100101.34;5030265;28;20060;-73
2023/12/25 09:23:52;;;;;;;19.45;2.88;;;;;;;7.42;100.00;100102.69;5050810;28;20060;-71
2023/12/25 09:26:21;;;;;;;79.80;13.23;;;;;;;7.44;100.00;100118.38;5040092;28;20065;-74
2023/12/25 09:28:50;;;;;;;45.15;7.60;;;;;;;7.39;100.00;100117.34;5050675;28;20528;-73
2023/12/25 09:31:17;;;;;;;35.78;5.03;;;;;;;7.37;100.00;100113.31;5043629;28;20040;-73
2023/12/25 09:33:42;;;;;;;22.10;3.03;;;;;;;7.45;100.00;100119.97;5049979;28;20035;-71
2023/12/25 09:36:08;;;;;;;30.48;5.07;;;;;;;7.47;100.00;100133.88;5045915;28;20036;-73
2023/12/25 09:38:34;;;;;;;43.08;7.53;;;;;;;7.49;100.00;100126.41;5051111;28;20032;-73
2023/12/25 09:41:00;;;;;;;32.97;7.15;;;;;;;7.49;100.00;100105.09;5044565;28;20025;-73
2023/12/25 09:43:31;;;;;;;18.00;3.50;;;;;;;7.50;100.00;100118.13;5049137;28;20084;-73
2023/12/25 09:45:58;;;;;;;18.42;2.28;;;;;;;7.51;100.00;100110.94;5063889;28;20040;-74
2023/12/25 09:48:23;;;;;;;15.68;2.47;;;;;;;7.54;100.00;100118.41;5029542;28;20036;-74
2023/12/25 09:50:49;;;;;;;26.65;5.13;;;;;;;7.52;100.00;100129.34;5044494;28;20119;-74
2023/12/25 09:53:15;;;;;;;20.30;3.03;;;;;;;7.55;100.00;100126.16;5020658;28;20102;-74
2023/12/25 09:55:40;;;;;;;18.63;2.95;;;;;;;7.65;100.00;100136.00;5029130;28;20039;-73
2023/12/25 09:58:10;;;;;;;22.83;2.65;;;;;;;7.69;100.00;100139.75;5026289;28;20535;-73
2023/12/25 10:00:37;;;;;;;21.25;3.58;;;;;;;7.72;100.00;100147.22;5060890;28;20039;-74
2023/12/25 10:03:03;;;;;;;23.85;3.35;;;;;;;7.75;100.00;100149.34;5053498;28;20063;-74
2023/12/25 10:05:29;;;;;;;21.40;3.13;;;;;;;7.76;100.00;100152.81;5044302;28;20056;-71
2023/12/25 10:07:55;;;;;;;19.05;3.33;;;;;;;7.78;100.00;100156.81;5061466;28;20129;-73
2023/12/25 10:10:28;;;;;;;21.65;4.28;;;;;;;7.82;100.00;100149.91;5028129;28;20036;-73
2023/12/25 10:12:55;;;;;;;14.02;3.00;;;;;;;7.84;100.00;100154.97;5035315;28;20033;-73
2023/12/25 10:15:22;;;;;;;22.02;5.70;;;;;;;7.86;100.00;100158.97;5036985;28;20052;-73
2023/12/25 10:18:02;;;;;;;72.20;47.85;;;;;;;7.92;100.00;100163.25;5045885;28;20521;-73
2023/12/25 10:20:28;;;;;;;18.90;3.33;;;;;;;7.90;100.00;100165.38;5071167;28;20465;-75
2023/12/25 10:22:54;;;;;;;16.92;2.25;;;;;;;7.88;100.00;100162.16;5045816;28;20072;-76
2023/12/25 10:25:29;;;;;;;20.45;2.35;;;;;;;7.90;100.00;100165.38;5029618;28;20071;-74
2023/12/25 10:28:10;;;;;;;21.08;2.67;;;;;;;7.88;100.00;100167.50;5049720;28;20055;-74
2023/12/25 10:30:36;;;;;;;18.52;3.08;;;;;;;7.89;100.00;100163.75;5039093;28;20046;-74
2023/12/25 10:33:14;;;;;;;16.83;2.60;;;;;;;7.86;100.00;100168.84;5021688;28;20128;-75
2023/12/25 10:36:04;;;;;;;22.73;3.55;;;;;;;7.84;100.00;100170.94;5058018;28;20409;-72
2023/12/25 10:38:35;;;;;;;19.67;5.13;;;;;;;7.75;100.00;100168.03;5038533;28;20089;-73
2023/12/25 10:41:22;;;;;;;21.25;4.45;;;;;;;7.71;100.00;100169.59;5024220;28;20025;-73
2023/12/25 10:43:54;;;;;;;15.52;2.78;;;;;;;7.67;100.00;100163.22;5068440;28;20123;-72
2023/12/25 10:46:26;;;;;;;24.42;4.70;;;;;;;7.63;100.00;100170.13;5024263;28;20044;-72
2023/12/25 10:48:53;;;;;;;27.88;6.35;;;;;;;7.60;100.00;100160.00;5027311;28;20032;-72
2023/12/25 10:51:25;;;;;;;18.80;4.32;;;;;;;7.62;100.00;100166.66;5031597;28;20036;-74
2023/12/25 10:53:51;;;;;;;20.20;3.63;;;;;;;7.63;100.00;100159.47;5032959;28;20032;-72
2023/12/25 10:56:20;;;;;;;22.35;6.50;;;;;;;7.61;100.00;100166.94;5051284;28;20028;-72
2023/12/25 10:58:49;;;;;;;19.38;3.83;;;;;;;7.64;100.00;100167.19;5009384;28;20055;-72
2023/12/25 11:01:19;;;;;;;34.53;4.82;;;;;;;7.67;100.00;100149.88;5029744;28;21783;-72
2023/12/25 11:03:44;;;;;;;21.05;3.58;;;;;;;7.74;100.00;100160.28;5030807;28;20032;-73
2023/12/25 11:06:11;;;;;;;24.77;2.95;;;;;;;7.77;100.00;100155.22;5045333;28;20032;-72
2023/12/25 11:08:37;;;;;;;15.05;2.95;;;;;;;7.82;100.00;100165.91;5032369;28;20498;-74
2023/12/25 11:11:03;;;;;;;19.27;2.78;;;;;;;7.85;100.00;100157.34;5068571;28;20031;-74
2023/12/25 11:13:30;;;;;;;20.48;3.17;;;;;;;7.90;100.00;100161.91;5050225;28;20039;-73
2023/12/25 11:15:57;;;;;;;19.15;2.88;;;;;;;7.92;100.00;100157.09;5064979;28;20032;-74
2023/12/25 11:18:23;;;;;;;14.25;2.65;;;;;;;7.96;100.00;100162.69;5048193;28;20054;-73
2023/12/25 11:21:09;;;;;;;15.60;3.17;;;;;;;7.96;100.00;100155.50;5028767;28;20037;-73
2023/12/25 11:23:37;;;;;;;18.55;2.65;;;;;;;7.98;100.00;100165.91;5050290;28;20042;-75